Terminal Aerodrome Forecast
Issued by NWS Lake Charles, LA

Home | Current Version | Previous Version | Text Only | Print | Product List | Glossary On
Versions: 1 2 3 4 5 6 7 8 9 10 11 12 13
000
FTUS44 KLCH 232300
TAFARA
TAF
KARA 232330Z 2400/2424 VRB04KT P6SM VCSH SCT045 BKN050
     FM240100 VRB03KT P6SM SCT050 SCT150
     FM241600 02004KT P6SM VCTS SCT030CB
     FM242100 VRB04KT P6SM VCTS SCT035CB SCT070=

USA.gov is the U.S. government's official web portal to all federal, state and local government web resources and services.